Time;durP1;ratioP1;P1;durP2;ratioP2;P2;SDS_P1;SDS_P2;PMS_P1;PMS_P2;Temp;Humidity;BMP_temperature;BMP_pressure;BME280_temperature;BME280_humidity;BME280_pressure;Samples;Min_cycle;Max_cycle;Signal;HPM_P1;HPM_P2
2022/03/20 00:02:17;;;;;;;;;;;;;;;5.52;77.71;103649.34;5000142;28;19921;-74
2022/03/20 00:04:43;;;;;;;;;;;;;;;5.53;76.67;103652.84;5015591;28;20054;-78
2022/03/20 00:07:11;;;;;;;;;;;;;;;5.53;76.58;103639.78;4995117;28;19928;-72
2022/03/20 00:09:37;;;;;;;;;;;;;;;5.48;76.74;103638.84;4999568;28;20353;-74
2022/03/20 00:12:02;;;;;;;;;;;;;;;5.53;76.58;103645.00;4999216;28;19983;-73
2022/03/20 00:14:28;;;;;;;;;;;;;;;5.48;76.95;103642.31;5001787;28;19928;-77
2022/03/20 00:16:53;;;;;;;;;;;;;;;5.46;77.17;103632.72;5005708;28;20483;-74
2022/03/20 00:19:19;;;;;;;;;;;;;;;5.46;77.09;103632.72;5001440;28;19929;-75
2022/03/20 00:21:44;;;;;;;;;;;;;;;5.47;76.92;103631.88;5002583;28;19936;-75
2022/03/20 00:24:10;;;;;;;;;;;;;;;5.41;77.71;103628.28;5000287;28;19921;-72
2022/03/20 00:26:35;;;;;;;;;;;;;;;5.41;77.47;103628.28;5001928;28;19925;-75
2022/03/20 00:29:00;;;;;;;;;;;;;;;5.36;77.02;103635.13;5003261;28;19936;-73
2022/03/20 00:31:28;;;;;;;;;;;;;;;5.32;77.00;103622.88;5003382;28;19932;-74
2022/03/20 00:33:53;;;;;;;;;;;;;;;5.31;76.74;103617.63;5002786;28;19941;-75
2022/03/20 00:36:19;;;;;;;;;;;;;;;5.34;76.56;103617.72;5001485;28;19925;-74
2022/03/20 00:38:44;;;;;;;;;;;;;;;5.28;76.48;103608.03;5004642;28;19976;-75
2022/03/20 00:41:09;;;;;;;;;;;;;;;5.28;76.28;103614.97;5003756;28;20315;-76
2022/03/20 00:43:36;;;;;;;;;;;;;;;5.24;76.46;103606.22;4994125;28;19922;-73
2022/03/20 00:46:02;;;;;;;;;;;;;;;5.21;76.49;103600.91;4997244;28;19925;-73
2022/03/20 00:48:27;;;;;;;;;;;;;;;5.21;76.74;103603.53;5000696;28;19932;-73
2022/03/20 00:50:53;;;;;;;;;;;;;;;5.17;77.54;103596.50;4989887;28;19929;-74
2022/03/20 00:53:18;;;;;;;;;;;;;;;5.11;77.74;103592.06;5008974;28;19929;-74
2022/03/20 00:55:43;;;;;;;;;;;;;;;5.13;77.54;103592.94;5000688;28;20016;-74
2022/03/20 00:58:10;;;;;;;;;;;;;;;5.11;77.88;103585.09;5001384;28;19932;-73
2022/03/20 01:00:35;;;;;;;;;;;;;;;5.11;77.96;103592.91;5001394;28;20323;-73
2022/03/20 01:03:01;;;;;;;;;;;;;;;5.09;77.87;103573.75;5010311;28;19925;-73
2022/03/20 01:05:27;;;;;;;;;;;;;;;5.05;78.42;103576.28;4994454;28;19921;-73
2022/03/20 01:07:52;;;;;;;;;;;;;;;5.05;78.58;103576.28;5003776;28;20455;-73
2022/03/20 01:10:17;;;;;;;;;;;;;;;5.04;78.17;103571.91;5000379;28;20634;-74
2022/03/20 01:12:42;;;;;;;;;;;;;;;5.00;78.43;103573.56;5017641;28;19929;-74
2022/03/20 01:15:10;;;;;;;;;;;;;;;5.01;78.43;103569.25;5013745;28;19917;-72
2022/03/20 01:17:35;;;;;;;;;;;;;;;4.98;78.17;103559.63;5011146;28;20344;-73
2022/03/20 01:20:01;;;;;;;;;;;;;;;4.92;78.14;103560.38;4976137;28;19984;-73
2022/03/20 01:22:26;;;;;;;;;;;;;;;4.86;78.90;103557.66;5005723;28;20522;-73
2022/03/20 01:24:52;;;;;;;;;;;;;;;4.83;79.21;103554.13;5000486;28;19971;-75
2022/03/20 01:27:17;;;;;;;;;;;;;;;4.83;78.98;103546.31;4999123;28;19925;-75
2022/03/20 01:29:42;;;;;;;;;;;;;;;4.85;79.46;103555.03;4996432;28;19932;-74
2022/03/20 01:32:08;;;;;;;;;;;;;;;4.82;79.97;103542.81;5000703;28;19975;-74
2022/03/20 01:34:34;;;;;;;;;;;;;;;4.79;80.20;103543.63;5001564;28;19948;-73
2022/03/20 01:36:59;;;;;;;;;;;;;;;4.81;80.61;103530.63;5003785;28;19945;-73
2022/03/20 01:39:24;;;;;;;;;;;;;;;4.75;80.50;103526.16;5001842;28;19918;-73
2022/03/20 01:41:50;;;;;;;;;;;;;;;4.72;81.31;103531.34;4989268;28;20015;-73
2022/03/20 01:44:15;;;;;;;;;;;;;;;4.70;81.19;103525.19;4997021;28;19932;-72
2022/03/20 01:46:41;;;;;;;;;;;;;;;4.65;81.09;103519.00;5000923;28;19974;-73
2022/03/20 01:49:06;;;;;;;;;;;;;;;4.63;81.83;103510.31;4997090;28;20784;-73
2022/03/20 01:54:13;;;;;;;;;;;;;;;4.60;81.69;103505.03;5000120;28;19929;-75
2022/03/20 01:56:42;;;;;;;;;;;;;;;4.52;81.88;103504.84;4993716;28;19941;-74
2022/03/20 01:59:07;;;;;;;;;;;;;;;4.51;82.62;103504.81;5001373;28;20387;-75
2022/03/20 02:01:33;;;;;;;;;;;;;;;4.53;82.60;103504.00;5000639;28;19926;-74
2022/03/20 02:03:58;;;;;;;;;;;;;;;4.55;83.02;103504.03;5000087;28;19925;-73
2022/03/20 02:06:25;;;;;;;;;;;;;;;4.54;82.78;103497.97;4998153;28;19928;-73
2022/03/20 02:08:51;;;;;;;;;;;;;;;4.52;82.92;103496.19;4999251;28;19965;-72
2022/03/20 02:11:17;;;;;;;;;;;;;;;4.46;83.27;103486.50;5001335;28;19979;-75
2022/03/20 02:13:42;;;;;;;;;;;;;;;4.51;82.95;103489.22;5001736;28;19925;-75
2022/03/20 02:16:07;;;;;;;;;;;;;;;4.44;83.38;103481.25;5001909;28;20592;-75
2022/03/20 02:18:33;;;;;;;;;;;;;;;4.41;83.77;103483.78;5001666;28;20647;-74
2022/03/20 02:21:02;;;;;;;;;;;;;;;4.38;83.79;103480.22;5000641;28;19970;-74
2022/03/20 02:23:27;;;;;;;;;;;;;;;4.39;84.10;103475.09;5000839;28;19925;-77
2022/03/20 02:25:52;;;;;;;;;;;;;;;4.36;84.19;103463.69;4999780;28;19921;-74
2022/03/20 02:28:18;;;;;;;;;;;;;;;4.33;84.85;103465.41;4999114;28;20028;-76
2022/03/20 02:30:45;;;;;;;;;;;;;;;4.32;84.61;103461.06;4996618;28;19929;-76
2022/03/20 02:33:10;;;;;;;;;;;;;;;4.28;85.12;103459.22;4999933;28;19976;-76
2022/03/20 02:35:36;;;;;;;;;;;;;;;4.29;84.71;103447.09;4999645;28;20525;-76
2022/03/20 02:38:02;;;;;;;;;;;;;;;4.25;85.16;103443.53;4999599;28;19929;-75
2022/03/20 02:40:28;;;;;;;;;;;;;;;4.25;85.73;103442.66;5001101;28;20355;-77
2022/03/20 02:42:54;;;;;;;;;;;;;;;4.22;85.86;103437.38;5002920;28;20115;-76
2022/03/20 02:45:22;;;;;;;;;;;;;;;4.21;86.04;103436.50;4993522;28;19925;-77
2022/03/20 02:47:48;;;;;;;;;;;;;;;4.22;85.35;103434.78;4998351;28;20470;-76
2022/03/20 02:50:17;;;;;;;;;;;;;;;4.13;85.75;103433.75;4999366;28;19967;-75
2022/03/20 02:52:47;;;;;;;;;;;;;;;4.13;86.51;103431.13;5003111;28;20455;-76
2022/03/20 02:55:14;;;;;;;;;;;;;;;4.11;86.56;103418.94;4994338;28;19926;-76
2022/03/20 02:57:39;;;;;;;;;;;;;;;4.08;85.85;103411.94;5017688;28;20057;-76
2022/03/20 03:00:05;;;;;;;;;;;;;;;4.12;85.96;103412.91;4995490;28;20392;-76
2022/03/20 03:02:34;;;;;;;;;;;;;;;4.08;85.76;103405.88;5001784;28;19929;-74
2022/03/20 03:05:00;;;;;;;;;;;;;;;4.11;86.02;103390.31;5000637;28;19926;-74
2022/03/20 03:07:29;;;;;;;;;;;;;;;4.09;85.16;103395.47;4984672;28;20004;-74
2022/03/20 03:12:35;;;;;;;;;;;;;;;4.02;84.99;103391.00;5000030;28;20040;-73
2022/03/20 03:17:41;;;;;;;;;;;;;;;3.95;84.95;103378.72;5001946;28;20355;-74
2022/03/20 03:20:07;;;;;;;;;;;;;;;3.95;84.73;103373.50;5000880;28;20550;-76
2022/03/20 03:22:32;;;;;;;;;;;;;;;3.92;84.58;103369.09;5003268;28;19921;-77
2022/03/20 03:24:57;;;;;;;;;;;;;;;3.93;83.94;103365.66;5000962;28;20396;-77
2022/03/20 03:27:23;;;;;;;;;;;;;;;3.90;84.31;103359.50;5001815;28;19929;-77
2022/03/20 03:29:48;;;;;;;;;;;;;;;3.91;83.92;103356.06;5003054;28;19975;-77
2022/03/20 03:32:13;;;;;;;;;;;;;;;3.89;83.79;103357.75;5003141;28;19960;-78
2022/03/20 03:37:20;;;;;;;;;;;;;;;3.81;83.42;103342.88;5005799;28;19971;-76
2022/03/20 03:39:46;;;;;;;;;;;;;;;3.83;82.60;103333.38;5005466;28;19929;-76
2022/03/20 03:42:11;;;;;;;;;;;;;;;3.84;81.97;103316.94;4988602;28;19921;-77
2022/03/20 03:44:36;;;;;;;;;;;;;;;3.88;81.18;103330.88;5006915;28;20001;-79
2022/03/20 03:47:02;;;;;;;;;;;;;;;3.84;81.10;103316.94;5007946;28;19929;-77
2022/03/20 03:49:27;;;;;;;;;;;;;;;3.82;80.47;103321.22;5010167;28;19921;-77
2022/03/20 03:51:53;;;;;;;;;;;;;;;3.87;80.40;103316.97;4994055;28;20450;-78
2022/03/20 03:54:19;;;;;;;;;;;;;;;3.84;80.14;103305.66;5016689;28;19948;-80
2022/03/20 03:56:44;;;;;;;;;;;;;;;3.85;79.69;103302.19;5008527;28;19930;-79
2022/03/20 03:59:10;;;;;;;;;;;;;;;3.79;80.08;103299.47;5006525;28;20487;-77
2022/03/20 04:01:36;;;;;;;;;;;;;;;3.81;79.30;103292.56;5009106;28;19917;-79
2022/03/20 04:04:01;;;;;;;;;;;;;;;3.85;79.42;103295.28;5007605;28;19956;-78
2022/03/20 04:06:27;;;;;;;;;;;;;;;3.80;79.65;103296.03;5011015;28;20750;-79
2022/03/20 04:08:53;;;;;;;;;;;;;;;3.76;79.84;103300.28;5008236;28;19925;-79
2022/03/20 04:11:19;;;;;;;;;;;;;;;3.69;79.88;103294.06;4998748;28;19975;-79
2022/03/20 04:13:44;;;;;;;;;;;;;;;3.66;80.15;103288.81;5006514;28;20733;-77
2022/03/20 04:16:09;;;;;;;;;;;;;;;3.60;80.65;103282.59;5007036;28;19951;-76
2022/03/20 04:18:35;;;;;;;;;;;;;;;3.60;80.76;103282.59;5007385;28;20627;-76
2022/03/20 04:21:00;;;;;;;;;;;;;;;3.58;80.16;103281.69;5007763;28;19947;-77
2022/03/20 04:26:06;;;;;;;;;;;;;;;3.45;80.78;103271.00;5006264;28;20318;-77
2022/03/20 04:28:31;;;;;;;;;;;;;;;3.45;81.08;103276.22;5006990;28;19963;-75
2022/03/20 04:30:57;;;;;;;;;;;;;;;3.47;80.78;103261.53;5007150;28;19921;-76
2022/03/20 04:33:25;;;;;;;;;;;;;;;3.46;80.27;103267.56;5006086;28;19925;-74
2022/03/20 04:35:50;;;;;;;;;;;;;;;3.40;81.06;103259.66;4987220;28;19923;-74
2022/03/20 04:38:16;;;;;;;;;;;;;;;3.42;81.44;103265.72;5004635;28;19924;-74
2022/03/20 04:40:41;;;;;;;;;;;;;;;3.42;81.40;103273.53;5006293;28;20016;-74
2022/03/20 04:43:06;;;;;;;;;;;;;;;3.45;80.64;103268.41;5004290;28;19925;-74
2022/03/20 04:45:32;;;;;;;;;;;;;;;3.40;80.87;103268.31;5008332;28;20418;-77
2022/03/20 04:58:43;;;;;;;;;;;;;;;3.18;82.04;103246.16;5001926;28;19948;-73
2022/03/20 05:01:09;;;;;;;;;;;;;;;3.17;82.31;103253.91;5001134;28;20395;-73
2022/03/20 05:03:35;;;;;;;;;;;;;;;3.15;81.82;103246.09;5002456;28;19956;-73
2022/03/20 05:06:01;;;;;;;;;;;;;;;3.08;82.47;103246.81;5001463;28;19928;-73
2022/03/20 05:08:26;;;;;;;;;;;;;;;3.06;82.31;103245.88;4983087;28;19925;-73
2022/03/20 05:13:32;;;;;;;;;;;;;;;3.00;81.83;103237.94;5001183;28;19953;-74
2022/03/20 05:15:57;;;;;;;;;;;;;;;2.98;82.32;103231.84;5001795;28;20514;-73
2022/03/20 05:18:22;;;;;;;;;;;;;;;2.97;81.92;103220.56;4999732;28;19933;-72
2022/03/20 05:20:49;;;;;;;;;;;;;;;2.94;81.99;103211.00;5001525;28;19983;-75
2022/03/20 05:23:14;;;;;;;;;;;;;;;2.94;82.32;103211.00;5000996;28;19921;-73
2022/03/20 05:25:40;;;;;;;;;;;;;;;2.93;81.74;103214.44;5003257;28;20611;-73
2022/03/20 05:28:05;;;;;;;;;;;;;;;2.96;81.46;103210.16;5000501;28;19936;-73
2022/03/20 05:30:31;;;;;;;;;;;;;;;2.94;80.73;103198.00;4997926;28;20399;-74
2022/03/20 05:32:56;;;;;;;;;;;;;;;2.98;80.85;103191.16;5002041;28;19922;-72
2022/03/20 05:35:22;;;;;;;;;;;;;;;2.92;81.01;103183.25;4998746;28;19926;-73
2022/03/20 05:37:47;;;;;;;;;;;;;;;2.91;81.12;103177.16;4999595;28;19922;-73
2022/03/20 05:40:14;;;;;;;;;;;;;;;2.92;80.78;103178.06;4979870;28;19933;-74
2022/03/20 05:42:39;;;;;;;;;;;;;;;2.93;80.73;103159.91;5015100;28;19921;-78
2022/03/20 05:45:05;;;;;;;;;;;;;;;2.92;80.44;103160.75;5000015;28;19922;-72
2022/03/20 05:47:31;;;;;;;;;;;;;;;2.97;79.43;103159.97;4983238;28;20715;-73
2022/03/20 05:49:57;;;;;;;;;;;;;;;2.92;79.49;103157.28;5003160;28;19929;-73
2022/03/20 05:52:23;;;;;;;;;;;;;;;2.94;79.37;103160.75;5002796;28;19949;-74
2022/03/20 05:54:48;;;;;;;;;;;;;;;2.91;79.32;103165.91;5016271;28;20368;-71
2022/03/20 05:59:55;;;;;;;;;;;;;;;3.03;78.36;103160.09;5002988;28;19972;-73
2022/03/20 06:02:21;;;;;;;;;;;;;;;2.99;78.33;103160.88;5000568;28;19925;-72
2022/03/20 06:04:46;;;;;;;;;;;;;;;2.94;78.88;103145.19;5002029;28;20580;-75
2022/03/20 06:07:12;;;;;;;;;;;;;;;2.90;79.06;103149.44;5000787;28;20004;-73
2022/03/20 06:09:38;;;;;;;;;;;;;;;2.89;78.81;103142.47;5001933;28;20707;-74
2022/03/20 06:12:03;;;;;;;;;;;;;;;2.86;78.90;103145.03;4983084;28;20389;-74
2022/03/20 06:14:29;;;;;;;;;;;;;;;2.98;78.17;103146.16;5001459;28;19926;-74
2022/03/20 06:16:54;;;;;;;;;;;;;;;2.96;78.20;103148.69;5002137;28;20426;-75
2022/03/20 06:19:20;;;;;;;;;;;;;;;2.94;78.10;103146.06;5000087;28;20455;-71
2022/03/20 06:21:46;;;;;;;;;;;;;;;2.92;78.51;103137.38;5002762;28;20352;-74
2022/03/20 06:24:11;;;;;;;;;;;;;;;2.93;78.25;103139.13;5015212;28;20316;-72
2022/03/20 06:26:37;;;;;;;;;;;;;;;3.01;78.26;103138.41;5001722;28;19961;-74
2022/03/20 06:29:05;;;;;;;;;;;;;;;2.94;78.89;103140.88;5004026;28;20368;-75
2022/03/20 06:31:30;;;;;;;;;;;;;;;2.90;78.29;103133.84;5003418;28;19922;-74
2022/03/20 06:33:56;;;;;;;;;;;;;;;2.92;78.21;103137.38;5003553;28;19940;-75
2022/03/20 06:36:21;;;;;;;;;;;;;;;3.03;77.83;103136.72;5003388;28;19928;-74
2022/03/20 06:38:46;;;;;;;;;;;;;;;2.98;77.79;103130.56;4985816;28;19960;-74
2022/03/20 06:41:11;;;;;;;;;;;;;;;3.06;77.36;103124.69;5002408;28;20016;-74
2022/03/20 06:43:37;;;;;;;;;;;;;;;3.08;77.46;103124.72;5001422;28;19921;-75
2022/03/20 06:46:04;;;;;;;;;;;;;;;3.18;77.49;103128.38;5003459;28;19933;-77
2022/03/20 06:48:29;;;;;;;;;;;;;;;3.21;77.24;103113.72;5004410;28;19921;-76
2022/03/20 06:50:54;;;;;;;;;;;;;;;3.25;76.92;103109.50;5004697;28;19925;-76
2022/03/20 06:53:20;;;;;;;;;;;;;;;3.29;76.84;103106.09;5003007;28;19933;-73
2022/03/20 06:55:45;;;;;;;;;;;;;;;3.23;76.40;103114.66;5004424;28;19925;-73
2022/03/20 06:58:11;;;;;;;;;;;;;;;3.25;76.68;103109.50;5003248;28;19921;-73
2022/03/20 07:00:37;;;;;;;;;;;;;;;3.39;76.30;103102.84;5002627;28;19952;-73
2022/03/20 07:03:06;;;;;;;;;;;;;;;3.44;75.87;103100.34;5003275;28;20380;-74
2022/03/20 07:05:32;;;;;;;;;;;;;;;3.43;75.42;103103.78;5004568;28;19925;-74
2022/03/20 07:07:57;;;;;;;;;;;;;;;3.55;75.16;103100.56;5003049;28;19922;-74
2022/03/20 07:10:23;;;;;;;;;;;;;;;3.43;75.12;103105.50;5002767;28;19933;-74
2022/03/20 07:12:50;;;;;;;;;;;;;;;3.71;73.87;103099.13;4986690;28;19925;-76
2022/03/20 07:15:18;;;;;;;;;;;;;;;3.66;73.86;103093.84;5003348;28;19921;-74
2022/03/20 07:17:44;;;;;;;;;;;;;;;3.67;74.05;103086.91;5002772;28;19926;-75
2022/03/20 07:20:10;;;;;;;;;;;;;;;3.63;74.27;103090.31;5002729;28;20125;-76
2022/03/20 07:22:35;;;;;;;;;;;;;;;3.81;73.62;103080.25;5003712;28;19925;-75
2022/03/20 07:29:29;;;;;;;;;;;;;;;4.02;72.62;103064.13;5003307;28;20013;-74
2022/03/20 07:30:26;;;;;;;;;;;;;;;3.75;71.76;103061.06;5008245;28;20714;-75
2022/03/20 07:32:52;;;;;;;;;;;;;;;4.11;70.71;103053.00;5008874;28;19922;-76
2022/03/20 07:35:17;;;;;;;;;;;;;;;4.12;70.53;103057.34;5007753;28;19921;-75
2022/03/20 07:37:42;;;;;;;;;;;;;;;4.06;71.21;103057.25;5007502;28;19922;-75
2022/03/20 07:40:08;;;;;;;;;;;;;;;4.11;69.86;103044.31;5005762;28;20736;-75
2022/03/20 07:42:34;;;;;;;;;;;;;;;4.20;69.89;103036.66;5006475;28;19922;-76
2022/03/20 07:45:02;;;;;;;;;;;;;;;4.14;68.94;103019.22;5010608;28;19972;-76
2022/03/20 07:47:30;;;;;;;;;;;;;;;4.07;69.13;103020.00;5008713;28;24935;-77
2022/03/20 07:49:55;;;;;;;;;;;;;;;4.23;68.74;103010.69;5010038;28;19961;-77
2022/03/20 07:52:22;;;;;;;;;;;;;;;4.11;68.82;102995.75;5009051;28;19925;-76
2022/03/20 07:54:47;;;;;;;;;;;;;;;4.12;69.10;102992.31;5009579;28;19925;-76
2022/03/20 07:57:12;;;;;;;;;;;;;;;4.13;68.78;102983.66;5009087;28;19971;-77
2022/03/20 07:59:38;;;;;;;;;;;;;;;4.24;67.35;102990.75;5010383;28;19929;-76
2022/03/20 08:02:03;;;;;;;;;;;;;;;4.47;67.14;102994.56;5007928;28;19971;-74
2022/03/20 08:04:29;;;;;;;;;;;;;;;4.38;66.39;102993.53;5007601;28;20543;-75
2022/03/20 08:06:54;;;;;;;;;;;;;;;4.47;66.69;103002.34;5009325;28;19961;-75
2022/03/20 08:09:19;;;;;;;;;;;;;;;4.42;67.18;103001.41;5009578;28;20019;-76
2022/03/20 08:11:45;;;;;;;;;;;;;;;4.44;67.85;103011.84;5007865;28;20024;-75
2022/03/20 08:14:10;;;;;;;;;;;;;;;4.64;66.98;102993.88;5006610;28;19922;-75
2022/03/20 08:16:39;;;;;;;;;;;;;;;4.72;65.87;102993.97;5006694;28;19976;-75
2022/03/20 08:19:05;;;;;;;;;;;;;;;4.79;66.26;102978.47;5006856;28;20380;-75
2022/03/20 08:21:33;;;;;;;;;;;;;;;4.49;66.65;102979.84;5006934;28;19945;-75
2022/03/20 08:24:02;;;;;;;;;;;;;;;4.72;65.69;102974.03;4987151;28;19961;-76
2022/03/20 08:26:27;;;;;;;;;;;;;;;4.76;65.32;102977.56;4998436;28;19928;-77
2022/03/20 08:28:53;;;;;;;;;;;;;;;4.63;65.22;102974.78;5004281;28;20606;-76
2022/03/20 08:31:18;;;;;;;;;;;;;;;4.87;65.41;102988.09;4985542;28;19973;-76
2022/03/20 08:33:43;;;;;;;;;;;;;;;4.94;64.85;102977.75;5007813;28;20304;-76
2022/03/20 08:36:09;;;;;;;;;;;;;;;5.52;63.37;102941.81;5007488;28;19921;-77
2022/03/20 08:38:35;;;;;;;;;;;;;;;6.23;59.51;102952.81;5006054;28;19976;-75
2022/03/20 08:41:00;;;;;;;;;;;;;;;6.89;58.24;102947.00;5023371;28;19926;-76
2022/03/20 08:43:26;;;;;;;;;;;;;;;7.10;57.01;102946.19;5005936;28;19921;-76
2022/03/20 08:45:51;;;;;;;;;;;;;;;7.38;55.64;102940.13;5006842;28;20682;-75
2022/03/20 08:48:18;;;;;;;;;;;;;;;7.64;52.90;102934.00;5008040;28;19921;-76
2022/03/20 08:50:44;;;;;;;;;;;;;;;7.68;52.54;102938.34;5002856;28;19930;-76
2022/03/20 08:53:10;;;;;;;;;;;;;;;8.29;51.81;102954.81;4992173;28;20408;-77
2022/03/20 08:55:39;;;;;;;;;;;;;;;7.64;53.01;102945.34;4969450;28;19922;-77
2022/03/20 08:58:04;;;;;;;;;;;;;;;7.68;52.43;102951.44;4988978;28;20032;-76
2022/03/20 09:00:32;;;;;;;;;;;;;;;7.11;53.31;102940.06;5003085;28;19976;-75
2022/03/20 09:02:57;;;;;;;;;;;;;;;7.41;52.87;102927.91;4988708;28;20412;-77
2022/03/20 09:05:22;;;;;;;;;;;;;;;7.73;53.00;102928.75;4988167;28;19961;-77
2022/03/20 09:07:49;;;;;;;;;;;;;;;7.53;53.08;102924.41;4987769;28;19930;-77
2022/03/20 09:10:15;;;;;;;;;;;;;;;6.52;55.78;102927.72;4987686;28;20751;-77
2022/03/20 09:12:42;;;;;;;;;;;;;;;5.72;57.60;102937.69;4991089;28;19925;-78
2022/03/20 09:15:12;;;;;;;;;;;;;;;5.56;59.03;102956.66;4986680;28;19960;-76
2022/03/20 09:20:18;;;;;;;;;;;;;;;5.18;59.70;102950.22;4988099;28;19918;-75
2022/03/20 09:22:43;;;;;;;;;;;;;;;5.04;60.13;102968.34;4987330;28;19924;-76
2022/03/20 09:25:09;;;;;;;;;;;;;;;5.22;60.29;102956.34;4998690;28;19972;-75
2022/03/20 09:27:35;;;;;;;;;;;;;;;5.24;60.52;102944.19;4978646;28;20020;-76
2022/03/20 09:30:01;;;;;;;;;;;;;;;5.14;60.15;102940.63;4987613;28;19976;-73
2022/03/20 09:32:26;;;;;;;;;;;;;;;5.20;60.23;102922.47;4988045;28;19972;-75
2022/03/20 09:34:52;;;;;;;;;;;;;;;5.45;60.75;102900.94;4986700;28;19926;-73
2022/03/20 09:37:17;;;;;;;;;;;;;;;5.50;60.11;102881.00;4988139;28;19928;-76
2022/03/20 09:39:43;;;;;;;;;;;;;;;5.31;59.98;102880.84;4987814;28;20428;-76
2022/03/20 09:42:08;;;;;;;;;;;;;;;5.42;59.53;102860.09;4988616;28;19943;-75
2022/03/20 09:44:37;;;;;;;;;;;;;;;5.42;60.18;102871.38;4988527;28;19922;-76
2022/03/20 09:47:02;;;;;;;;;;;;;;;5.39;59.81;102873.97;4986633;28;20673;-76
2022/03/20 09:49:29;;;;;;;;;;;;;;;5.15;61.33;102884.19;4989198;28;19926;-74
2022/03/20 09:51:54;;;;;;;;;;;;;;;5.28;60.58;102898.19;4997044;28;19988;-77
2022/03/20 09:54:19;;;;;;;;;;;;;;;5.20;59.91;102900.72;5005839;28;20024;-75
2022/03/20 09:56:48;;;;;;;;;;;;;;;5.22;60.44;102922.47;4986915;28;20000;-73
2022/03/20 09:59:14;;;;;;;;;;;;;;;5.15;60.14;102913.72;5003195;28;20537;-72
2022/03/20 10:01:39;;;;;;;;;;;;;;;5.10;60.24;102889.34;4984860;28;19982;-73
2022/03/20 10:04:07;;;;;;;;;;;;;;;5.17;59.21;102906.78;5001821;28;19921;-72
2022/03/20 10:06:35;;;;;;;;;;;;;;;5.02;59.30;102909.22;5001740;28;19952;-72
2022/03/20 10:09:02;;;;;;;;;;;;;;;4.98;60.39;102912.69;4986747;28;19925;-74
2022/03/20 10:11:28;;;;;;;;;;;;;;;5.13;59.75;102901.53;5008323;28;19925;-75
2022/03/20 10:14:08;;;;;;;;;;;;;;;5.12;59.57;102903.28;5006286;28;19974;-74
2022/03/20 10:16:35;;;;;;;;;;;;;;;5.16;59.45;102896.34;5002188;28;19921;-72
2022/03/20 10:19:00;;;;;;;;;;;;;;;5.15;59.75;102898.06;5001029;28;19925;-72
2022/03/20 10:21:41;;;;;;;;;;;;;;;5.09;59.79;102895.44;5004176;28;19924;-76
2022/03/20 10:24:14;;;;;;;;;;;;;;;5.20;60.12;102882.47;5003897;28;19917;-75
2022/03/20 10:26:39;;;;;;;;;;;;;;;5.37;59.06;102886.13;5006833;28;19925;-76
2022/03/20 10:29:12;;;;;;;;;;;;;;;5.54;58.76;102874.94;4999647;28;19925;-76
2022/03/20 10:31:46;;;;;;;;;;;;;;;5.57;58.00;102865.41;5007408;28;19928;-77
2022/03/20 10:34:11;;;;;;;;;;;;;;;5.42;59.00;102867.91;5005411;28;19944;-74
2022/03/20 10:36:37;;;;;;;;;;;;;;;5.53;58.55;102861.03;5006555;28;19925;-75
2022/03/20 10:39:08;;;;;;;;;;;;;;;5.69;58.66;102855.91;5000056;28;19921;-71
2022/03/20 10:41:34;;;;;;;;;;;;;;;5.81;56.76;102844.69;5005655;28;19957;-77
2022/03/20 10:44:00;;;;;;;;;;;;;;;5.65;57.29;102835.91;4988577;28;19921;-76
2022/03/20 10:46:28;;;;;;;;;;;;;;;5.91;56.60;102822.13;5004820;28;20623;-76
2022/03/20 10:48:54;;;;;;;;;;;;;;;6.80;55.39;102796.28;4987794;28;20916;-77
2022/03/20 10:51:37;;;;;;;;;;;;;;;7.37;53.67;102784.94;4986741;28;19948;-76
2022/03/20 10:54:03;;;;;;;;;;;;;;;7.69;52.01;102767.44;5000428;28;19956;-73
2022/03/20 10:56:28;;;;;;;;;;;;;;;7.49;51.90;102757.91;5002404;28;19925;-74
2022/03/20 10:58:54;;;;;;;;;;;;;;;8.07;50.97;102763.75;5000512;28;19928;-75
2022/03/20 11:01:32;;;;;;;;;;;;;;;8.44;48.88;102781.88;5005451;28;20717;-78
2022/03/20 11:03:58;;;;;;;;;;;;;;;8.24;49.84;102783.75;5003253;28;20340;-78
2022/03/20 11:06:25;;;;;;;;;;;;;;;7.92;50.59;102783.03;5021117;28;19956;-74
2022/03/20 11:08:50;;;;;;;;;;;;;;;7.57;50.95;102786.63;4998306;28;20444;-74
2022/03/20 11:11:19;;;;;;;;;;;;;;;7.48;51.93;102794.50;5004133;28;19929;-72
2022/03/20 11:13:46;;;;;;;;;;;;;;;7.56;52.46;102805.81;4987967;28;20292;-75
2022/03/20 11:16:12;;;;;;;;;;;;;;;7.06;53.15;102811.13;5007727;28;20012;-74
2022/03/20 11:18:39;;;;;;;;;;;;;;;7.11;53.03;102806.75;4989798;28;19929;-74
2022/03/20 11:21:05;;;;;;;;;;;;;;;7.09;53.21;102811.13;5005340;28;19918;-73
2022/03/20 11:23:32;;;;;;;;;;;;;;;7.05;53.42;102814.59;5009508;28;19922;-74
2022/03/20 11:25:58;;;;;;;;;;;;;;;7.04;52.39;102818.09;5005950;28;19978;-76
2022/03/20 11:28:24;;;;;;;;;;;;;;;6.53;52.83;102825.84;5003930;28;20335;-75
2022/03/20 11:30:50;;;;;;;;;;;;;;;6.40;53.83;102845.84;5005511;28;19933;-75
2022/03/20 11:33:19;;;;;;;;;;;;;;;6.28;54.71;102831.03;5003552;28;19921;-73
2022/03/20 11:35:45;;;;;;;;;;;;;;;6.73;54.60;102830.25;5006025;28;20408;-72
2022/03/20 11:38:14;;;;;;;;;;;;;;;6.25;55.31;102841.44;5003774;28;19922;-73
2022/03/20 11:40:41;;;;;;;;;;;;;;;6.38;54.95;102831.91;5007851;28;20012;-77
2022/03/20 11:43:13;;;;;;;;;;;;;;;6.04;55.33;102842.22;5003533;28;19917;-74
2022/03/20 11:45:38;;;;;;;;;;;;;;;6.05;55.47;102835.28;5007233;28;19948;-73
2022/03/20 11:48:13;;;;;;;;;;;;;;;6.07;56.12;102836.13;5017493;28;19925;-74
2022/03/20 11:50:41;;;;;;;;;;;;;;;5.97;57.12;102841.28;5010466;28;19921;-74
2022/03/20 11:53:06;;;;;;;;;;;;;;;6.10;55.83;102839.66;5003062;28;20385;-72
2022/03/20 11:55:33;;;;;;;;;;;;;;;6.30;55.74;102823.19;5003057;28;20016;-72
2022/03/20 11:57:59;;;;;;;;;;;;;;;6.44;57.38;102823.22;5002557;28;19964;-73
2022/03/20 12:00:26;;;;;;;;;;;;;;;6.30;55.19;102810.13;5002268;28;20356;-73
2022/03/20 12:02:57;;;;;;;;;;;;;;;6.59;55.16;102812.81;5016807;28;20288;-71
2022/03/20 12:05:37;;;;;;;;;;;;;;;7.03;54.04;102805.03;5022707;28;20388;-75
2022/03/20 12:08:18;;;;;;;;;;;;;;;7.48;53.47;102810.19;5004785;28;19943;-73
2022/03/20 12:10:51;;;;;;;;;;;;;;;7.15;53.63;102797.19;5001775;28;19940;-72
2022/03/20 12:13:25;;;;;;;;;;;;;;;7.29;52.74;102794.53;5000054;28;19993;-74
2022/03/20 12:15:50;;;;;;;;;;;;;;;7.40;52.99;102784.94;5002206;28;19921;-73
2022/03/20 12:18:15;;;;;;;;;;;;;;;7.84;52.90;102783.06;5000241;28;19967;-74
2022/03/20 12:20:52;;;;;;;;;;;;;;;7.93;53.74;102790.00;5004213;28;19921;-73
2022/03/20 12:23:33;;;;;;;;;;;;;;;7.64;52.88;102771.78;5001385;28;19926;-72
2022/03/20 12:26:18;;;;;;;;;;;;;;;7.88;52.12;102776.09;5002483;28;19928;-74
2022/03/20 12:28:43;;;;;;;;;;;;;;;8.10;51.60;102784.69;4971109;28;19964;-73
2022/03/20 12:31:09;;;;;;;;;;;;;;;8.36;50.84;102767.97;4990635;28;19929;-72
2022/03/20 12:33:34;;;;;;;;;;;;;;;8.19;51.00;102763.69;5000976;28;20288;-73
2022/03/20 12:35:59;;;;;;;;;;;;;;;8.28;51.29;102777.59;5000716;28;20020;-73
2022/03/20 12:38:34;;;;;;;;;;;;;;;7.81;52.41;102777.84;5000510;28;19925;-74
2022/03/20 12:41:15;;;;;;;;;;;;;;;7.98;52.57;102767.31;5000262;28;19931;-74
2022/03/20 12:43:41;;;;;;;;;;;;;;;8.22;51.29;102756.72;5000381;28;19947;-74
2022/03/20 12:46:08;;;;;;;;;;;;;;;8.50;51.42;102753.03;5000248;28;20284;-74
2022/03/20 12:48:35;;;;;;;;;;;;;;;8.18;51.13;102758.47;5004952;28;19955;-74
2022/03/20 12:51:09;;;;;;;;;;;;;;;8.57;50.22;102751.25;5000676;28;19930;-72
2022/03/20 12:53:37;;;;;;;;;;;;;;;8.16;50.69;102753.22;4995384;28;19929;-73
2022/03/20 12:56:06;;;;;;;;;;;;;;;7.64;52.38;102756.97;4989172;28;19949;-72
2022/03/20 12:58:31;;;;;;;;;;;;;;;7.97;51.93;102755.09;4995914;28;19925;-72
2022/03/20 13:00:58;;;;;;;;;;;;;;;7.58;53.39;102762.22;4993889;28;20399;-73
2022/03/20 13:03:25;;;;;;;;;;;;;;;7.89;52.80;102751.63;4990768;28;19931;-74
2022/03/20 13:05:53;;;;;;;;;;;;;;;8.04;52.16;102742.84;4993455;28;20008;-74
2022/03/20 13:08:21;;;;;;;;;;;;;;;8.28;51.18;102738.31;4974466;28;19928;-73
2022/03/20 13:10:47;;;;;;;;;;;;;;;8.27;51.87;102744.47;4992190;28;20019;-75
2022/03/20 13:13:16;;;;;;;;;;;;;;;7.87;52.32;102738.56;4985919;28;19921;-72
2022/03/20 13:15:42;;;;;;;;;;;;;;;8.12;52.51;102722.72;4991297;28;20643;-73
2022/03/20 13:18:08;;;;;;;;;;;;;;;7.78;53.48;102727.25;4987649;28;19925;-72
2022/03/20 13:20:35;;;;;;;;;;;;;;;8.23;52.99;102720.03;4985423;28;19922;-75